Time,TemperatureF,DewpointF,PressureIn,WindDirection,WindDirectionDegrees,WindSpeedMPH,WindSpeedGustMPH,Humidity,HourlyPrecipIn,Conditions,Clouds,dailyrainin,SolarRadiationWatts/m^2,SoftwareType,DateUTC
2013-09-03 00:00:00,73.2,70.7,29.73,NE,40,0.0,4.0,92,0.00,,CLR,0.00,0.00,VWS V14.01,2013-09-03 04:00:00,
2013-09-03 00:01:00,73.2,70.7,29.73,NE,40,0.0,4.0,92,0.00,,CLR,0.00,0.00,VWS V14.01,2013-09-03 04:01:00,
2013-09-03 00:06:00,73.2,71.1,29.73,NE,40,3.0,3.0,93,0.00,,CLR,0.00,0.00,VWS V14.01,2013-09-03 04:06:00,
2013-09-03 00:11:00,73.2,71.1,29.73,NE,35,0.0,5.0,93,0.00,,CLR,0.00,0.00,VWS V14.01,2013-09-03 04:11:00,
2013-09-03 00:16:00,73.0,70.9,29.74,NE,36,0.0,5.0,93,0.00,,CLR,0.00,0.00,VWS V14.01,2013-09-03 04:16:00,
2013-09-03 00:21:00,72.8,70.3,29.74,NE,36,0.0,5.0,92,0.00,,CLR,0.00,0.00,VWS V14.01,2013-09-03 04:21:00,
2013-09-03 00:26:00,72.8,70.3,29.74,NE,36,0.0,5.0,92,0.00,,CLR,0.00,0.00,VWS V14.01,2013-09-03 04:26:00,
2013-09-03 00:30:00,73.0,68.9,29.74,NE,40,0.0,0.0,87,0.00,,CLR,0.00,0.00,VWS V14.01,2013-09-03 04:30:00,
2013-09-03 00:31:00,73.0,70.5,29.74,NE,36,0.0,0.0,92,0.00,,CLR,0.00,0.00,VWS V14.01,2013-09-03 04:31:00,
2013-09-03 00:36:00,73.2,69.8,29.74,NE,35,5.0,5.0,89,0.00,,CLR,0.00,0.00,VWS V14.01,2013-09-03 04:36:00,
2013-09-03 00:41:00,73.7,70.3,29.74,NNE,32,0.0,6.0,89,0.00,,CLR,0.00,0.00,VWS V14.01,2013-09-03 04:41:00,
2013-09-03 00:46:00,73.9,70.5,29.73,NNE,33,4.0,6.0,89,0.00,,CLR,0.00,0.00,VWS V14.01,2013-09-03 04:46:00,
2013-09-03 00:51:00,73.9,70.1,29.73,NNE,33,4.0,6.0,88,0.00,,CLR,0.00,0.00,VWS V14.01,2013-09-03 04:51:00,
2013-09-03 00:56:00,73.9,69.8,29.73,NE,34,4.0,6.0,87,0.00,,CLR,0.00,0.00,VWS V14.01,2013-09-03 04:56:00,
2013-09-03 01:00:00,73.2,70.7,29.73,NE,40,0.0,4.0,92,0.00,,CLR,0.00,0.00,VWS V14.01,2013-09-03 05:00:00,
2013-09-03 01:01:00,73.7,69.9,29.73,NE,35,0.0,0.0,88,0.00,,,0.00,0.00,VWS V14.01,2013-09-03 05:01:00,
2013-09-03 01:06:00,73.3,69.9,29.73,NE,35,0.0,0.0,89,0.00,,,0.00,0.00,VWS V14.01,2013-09-03 05:06:00,
2013-09-03 01:11:00,73.2,69.1,29.73,NE,35,0.0,0.0,87,0.00,,,0.00,0.00,VWS V14.01,2013-09-03 05:11:00,
2013-09-03 01:16:00,73.2,69.1,29.73,NE,35,0.0,3.0,87,0.00,,,0.00,0.00,VWS V14.01,2013-09-03 05:16:00,
2013-09-03 01:21:00,73.2,69.4,29.73,NE,35,0.0,3.0,88,0.00,,,0.00,0.00,VWS V14.01,2013-09-03 05:21:00,
2013-09-03 01:26:00,73.2,69.4,29.73,NE,35,0.0,3.0,88,0.00,,,0.00,0.00,VWS V14.01,2013-09-03 05:26:00,
2013-09-03 01:30:00,73.0,70.5,29.74,NE,36,0.0,5.0,92,0.00,,CLR,0.00,0.00,VWS V14.01,2013-09-03 05:30:00,
2013-09-03 01:31:00,73.0,69.9,29.73,NE,35,0.0,0.0,90,0.00,,,0.00,0.00,VWS V14.01,2013-09-03 05:31:00,
2013-09-03 01:36:00,73.0,70.2,29.73,NE,35,1.0,2.0,91,0.00,,,0.00,0.00,VWS V14.01,2013-09-03 05:36:00,
2013-09-03 01:41:00,73.3,70.5,29.73,NE,36,0.0,4.0,91,0.00,,,0.00,0.00,VWS V14.01,2013-09-03 05:41:00,
2013-09-03 01:46:00,73.2,70.4,29.73,NE,36,0.0,4.0,91,0.00,,,0.00,0.00,VWS V14.01,2013-09-03 05:46:00,
2013-09-03 01:51:00,73.3,71.2,29.73,NE,36,0.0,4.0,93,0.00,,,0.00,0.00,VWS V14.01,2013-09-03 05:51:00,
2013-09-03 01:56:00,73.2,70.7,29.73,NE,36,0.0,4.0,92,0.00,,,0.00,0.00,VWS V14.01,2013-09-03 05:56:00,
2013-09-03 02:00:00,73.7,69.9,29.73,NE,35,0.0,6.0,88,0.00,,CLR,0.00,0.00,VWS V14.01,2013-09-03 06:00:00,
2013-09-03 02:01:00,73.0,70.5,29.73,NE,36,0.0,4.0,92,0.00,,CLR,0.00,0.00,VWS V14.01,2013-09-03 06:01:00,
2013-09-03 02:06:00,72.8,70.3,29.73,NE,38,0.0,0.0,92,0.00,,CLR,0.00,0.00,VWS V14.01,2013-09-03 06:06:00,
2013-09-03 02:11:00,72.7,69.9,29.73,NE,38,0.0,0.0,91,0.00,,CLR,0.00,0.00,VWS V14.01,2013-09-03 06:11:00,
2013-09-03 02:16:00,72.5,70.1,29.73,NE,38,0.0,0.0,92,0.00,,CLR,0.00,0.00,VWS V14.01,2013-09-03 06:16:00,
2013-09-03 02:21:00,72.5,70.1,29.73,NE,38,0.0,0.0,92,0.00,,CLR,0.00,0.00,VWS V14.01,2013-09-03 06:21:00,
2013-09-03 02:26:00,72.5,70.4,29.73,NNE,30,2.0,3.0,93,0.00,,CLR,0.00,0.00,VWS V14.01,2013-09-03 06:26:00,
2013-09-03 02:30:00,73.0,69.9,29.73,NE,35,0.0,3.0,90,0.00,,CLR,0.00,0.00,VWS V14.01,2013-09-03 06:30:00,
2013-09-03 02:31:00,72.5,70.4,29.72,NE,37,0.0,5.0,93,0.00,,CLR,0.00,0.00,VWS V14.01,2013-09-03 06:31:00,
2013-09-03 02:36:00,72.3,70.2,29.72,NE,37,0.0,0.0,93,0.00,,CLR,0.00,0.00,VWS V14.01,2013-09-03 06:36:00,
2013-09-03 02:41:00,72.5,70.4,29.72,NE,37,0.0,0.0,93,0.00,,CLR,0.00,0.00,VWS V14.01,2013-09-03 06:41:00,
2013-09-03 02:46:00,72.5,70.7,29.71,NE,37,0.0,0.0,94,0.00,,CLR,0.00,0.00,VWS V14.01,2013-09-03 06:46:00,
2013-09-03 02:51:00,72.5,70.7,29.71,NE,37,0.0,0.0,94,0.00,,CLR,0.00,0.00,VWS V14.01,2013-09-03 06:51:00,
2013-09-03 02:56:00,72.5,71.0,29.71,NE,37,4.0,4.0,95,0.00,,CLR,0.00,0.00,VWS V14.01,2013-09-03 06:56:00,
2013-09-03 03:00:00,73.0,70.5,29.73,NE,36,0.0,4.0,92,0.00,,CLR,0.00,0.00,VWS V14.01,2013-09-03 07:00:00,
2013-09-03 03:01:00,72.7,71.2,29.72,NE,38,0.0,4.0,95,0.00,,CLR,0.00,0.00,VWS V14.01,2013-09-03 07:01:00,
2013-09-03 03:06:00,72.7,71.2,29.72,NE,38,0.0,0.0,95,0.00,,CLR,0.00,0.00,VWS V14.01,2013-09-03 07:06:00,
2013-09-03 03:11:00,72.5,70.7,29.72,NE,51,0.0,1.0,94,0.00,,CLR,0.00,0.00,VWS V14.01,2013-09-03 07:11:00,
2013-09-03 03:16:00,72.3,70.5,29.71,NE,51,0.0,1.0,94,0.00,,CLR,0.00,0.00,VWS V14.01,2013-09-03 07:16:00,
2013-09-03 03:21:00,72.5,71.0,29.71,NE,40,3.0,5.0,95,0.00,,CLR,0.00,0.00,VWS V14.01,2013-09-03 07:21:00,
2013-09-03 03:26:00,72.5,70.7,29.71,NE,40,3.0,5.0,94,0.00,,CLR,0.00,0.00,VWS V14.01,2013-09-03 07:26:00,
2013-09-03 03:30:00,72.5,70.4,29.72,NE,37,0.0,5.0,93,0.00,,CLR,0.00,0.00,VWS V14.01,2013-09-03 07:30:00,
2013-09-03 03:31:00,72.5,70.7,29.72,NE,40,3.0,5.0,94,0.00,,CLR,0.00,0.00,VWS V14.01,2013-09-03 07:31:00,
2013-09-03 03:36:00,72.5,70.4,29.72,NE,40,0.0,2.0,93,0.00,,CLR,0.00,0.00,VWS V14.01,2013-09-03 07:36:00,
2013-09-03 03:41:00,72.7,70.9,29.72,NE,40,0.0,3.0,94,0.00,,CLR,0.00,0.00,VWS V14.01,2013-09-03 07:41:00,
2013-09-03 03:45:00,72.7,70.6,29.73,NE,40,0.0,3.0,93,0.00,,CLR,0.00,0.00,VWS V14.01,2013-09-03 07:45:00,
2013-09-03 03:50:00,72.7,70.6,29.73,NE,40,0.0,3.0,93,0.00,,CLR,0.00,0.00,VWS V14.01,2013-09-03 07:50:00,
2013-09-03 03:56:00,72.7,70.2,29.73,NE,53,0.0,3.0,92,0.00,,CLR,0.00,0.00,VWS V14.01,2013-09-03 07:56:00,
2013-09-03 04:00:00,72.7,71.2,29.72,NE,38,0.0,4.0,95,0.00,,CLR,0.00,0.00,VWS V14.01,2013-09-03 08:00:00,
2013-09-03 04:01:00,72.7,70.2,29.72,NE,53,0.0,3.0,92,0.00,,CLR,0.00,0.00,VWS V14.01,2013-09-03 08:01:00,
2013-09-03 04:06:00,72.3,69.8,29.72,NE,53,0.0,0.0,92,0.00,,CLR,0.00,0.00,VWS V14.01,2013-09-03 08:06:00,
2013-09-03 04:10:00,72.3,70.2,29.72,NE,53,0.0,0.0,93,0.00,,CLR,0.00,0.00,VWS V14.01,2013-09-03 08:10:00,
2013-09-03 04:15:00,72.3,70.2,29.72,NE,53,0.0,0.0,93,0.00,,CLR,0.00,0.00,VWS V14.01,2013-09-03 08:15:00,
2013-09-03 04:20:00,72.5,70.7,29.72,NE,53,0.0,1.0,94,0.00,,CLR,0.00,0.00,VWS V14.01,2013-09-03 08:20:00,
2013-09-03 04:25:00,72.5,70.7,29.72,NE,53,0.0,2.0,94,0.00,,CLR,0.00,0.00,VWS V14.01,2013-09-03 08:25:00,
2013-09-03 04:30:00,72.3,70.5,29.71,NE,53,0.0,2.0,94,0.00,,CLR,0.00,0.00,VWS V14.01,2013-09-03 08:30:00,
2013-09-03 04:35:00,72.3,70.8,29.71,NE,44,4.0,4.0,95,0.00,,CLR,0.00,0.00,VWS V14.01,2013-09-03 08:35:00,
2013-09-03 04:40:00,72.3,70.5,29.71,NE,34,0.0,6.0,94,0.00,,CLR,0.00,0.00,VWS V14.01,2013-09-03 08:40:00,
2013-09-03 04:45:00,72.3,70.5,29.72,NE,34,2.0,6.0,94,0.00,,CLR,0.00,0.00,VWS V14.01,2013-09-03 08:45:00,
2013-09-03 04:50:00,72.5,70.4,29.72,NE,34,0.0,6.0,93,0.00,,CLR,0.00,0.00,VWS V14.01,2013-09-03 08:50:00,
2013-09-03 04:55:00,72.7,70.6,29.72,NE,34,0.0,6.0,93,0.00,,CLR,0.00,0.00,VWS V14.01,2013-09-03 08:55:00,
2013-09-03 05:00:00,72.7,70.2,29.72,NE,35,0.0,6.0,92,0.00,,BKN100,0.00,0.00,VWS V14.01,2013-09-03 09:00:00,
2013-09-03 05:05:00,72.5,70.1,29.72,NE,35,0.0,0.0,92,0.00,,BKN100,0.00,0.00,VWS V14.01,2013-09-03 09:05:00,
2013-09-03 05:10:00,72.5,70.4,29.72,NE,35,0.0,0.0,93,0.00,,BKN100,0.00,0.00,VWS V14.01,2013-09-03 09:10:00,
2013-09-03 05:15:00,72.3,69.8,29.72,NE,35,0.0,0.0,92,0.00,,BKN100,0.00,0.00,VWS V14.01,2013-09-03 09:15:00,
2013-09-03 05:20:00,72.3,70.2,29.72,NNE,33,0.0,4.0,93,0.00,,BKN100,0.00,0.00,VWS V14.01,2013-09-03 09:20:00,
2013-09-03 05:25:00,72.1,70.0,29.72,NE,41,0.0,4.0,93,0.00,,BKN100,0.00,0.00,VWS V14.01,2013-09-03 09:25:00,
2013-09-03 05:30:00,72.1,70.3,29.72,NE,41,0.0,4.0,94,0.00,,BKN100,0.00,0.00,VWS V14.01,2013-09-03 09:30:00,
2013-09-03 05:35:00,72.1,70.6,29.72,NE,41,0.0,0.0,95,0.00,,BKN100,0.00,0.00,VWS V14.01,2013-09-03 09:35:00,
2013-09-03 05:40:00,72.5,71.3,29.72,NE,41,0.0,2.0,96,0.00,,BKN100,0.00,0.00,VWS V14.01,2013-09-03 09:40:00,
2013-09-03 05:45:00,72.8,71.3,29.73,NE,41,2.0,2.0,95,0.00,,BKN100,0.00,0.00,VWS V14.01,2013-09-03 09:45:00,
2013-09-03 05:50:00,72.7,71.2,29.73,NE,41,0.0,3.0,95,0.00,,BKN100,0.00,0.00,VWS V14.01,2013-09-03 09:50:00,
2013-09-03 05:55:00,72.7,71.2,29.73,NE,41,0.0,3.0,95,0.00,,BKN100,0.00,0.00,VWS V14.01,2013-09-03 09:55:00,
2013-09-03 06:00:00,72.8,71.3,29.74,NE,41,0.0,5.0,95,0.00,,,0.00,0.00,VWS V14.01,2013-09-03 10:00:00,
2013-09-03 06:05:00,72.8,71.3,29.74,NE,41,0.0,3.0,95,0.00,,,0.00,0.00,VWS V14.01,2013-09-03 10:05:00,
2013-09-03 06:10:00,72.7,70.9,29.74,NE,36,1.0,4.0,94,0.00,,,0.00,0.00,VWS V14.01,2013-09-03 10:10:00,
2013-09-03 06:15:00,72.7,70.6,29.75,NNE,30,5.0,7.0,93,0.00,,,0.00,0.00,VWS V14.01,2013-09-03 10:15:00,
2013-09-03 06:20:00,72.5,69.7,29.75,NNE,27,5.0,7.0,91,0.00,,,0.00,0.00,VWS V14.01,2013-09-03 10:20:00,
2013-09-03 06:25:00,72.1,69.3,29.75,NE,37,0.0,7.0,91,0.00,,,0.00,0.00,VWS V14.01,2013-09-03 10:25:00,
2013-09-03 06:30:00,72.0,69.9,29.76,NNE,29,1.0,7.0,93,0.00,,,0.00,0.00,VWS V14.01,2013-09-03 10:30:00,
2013-09-03 06:35:00,71.8,69.0,29.76,NNE,30,1.0,4.0,91,0.00,,,0.00,0.00,VWS V14.01,2013-09-03 10:35:00,
2013-09-03 06:40:00,71.8,69.0,29.76,NNE,28,0.0,6.0,91,0.00,,,0.00,0.00,VWS V14.01,2013-09-03 10:40:00,
2013-09-03 06:45:00,71.8,69.0,29.77,West,261,2.0,7.0,91,0.00,,,0.00,0.00,VWS V14.01,2013-09-03 10:45:00,
2013-09-03 06:50:00,71.8,69.7,29.77,WNW,284,14.0,14.0,93,0.00,,,0.00,0.00,VWS V14.01,2013-09-03 10:50:00,
2013-09-03 06:55:00,72.1,69.7,29.77,NNW,336,9.0,21.0,92,0.11,,,0.11,0.00,VWS V14.01,2013-09-03 10:55:00,
2013-09-03 07:00:00,72.5,68.4,29.79,North,351,21.0,25.0,87,0.16,,OVC085,0.16,0.00,VWS V14.01,2013-09-03 11:00:00,
2013-09-03 07:05:00,73.3,68.9,29.79,North,5,21.0,28.0,86,0.17,,OVC085,0.17,0.00,VWS V14.01,2013-09-03 11:05:00,
2013-09-03 07:10:00,72.0,65.9,29.79,North,355,22.0,28.0,81,0.17,,OVC085,0.17,0.00,VWS V14.01,2013-09-03 11:10:00,
2013-09-03 07:15:00,70.9,65.5,29.82,NNW,344,13.0,28.0,83,0.17,,OVC085,0.17,0.00,VWS V14.01,2013-09-03 11:15:00,
2013-09-03 07:20:00,70.9,68.2,29.82,North,355,11.0,28.0,91,0.28,,OVC085,0.28,0.00,VWS V14.01,2013-09-03 11:20:00,
2013-09-03 07:25:00,70.8,67.7,29.82,NE,56,3.0,28.0,90,0.46,,OVC085,0.46,0.00,VWS V14.01,2013-09-03 11:25:00,
2013-09-03 07:30:00,70.6,67.2,29.81,ENE,61,10.0,28.0,89,0.52,,OVC085,0.52,0.00,VWS V14.01,2013-09-03 11:30:00,
2013-09-03 07:35:00,70.8,66.1,29.81,NNE,19,7.0,13.0,85,0.54,,OVC085,0.54,0.00,VWS V14.01,2013-09-03 11:35:00,
2013-09-03 07:40:00,70.4,66.3,29.81,NW,304,9.0,14.0,87,0.55,,-RA,0.55,0.00,VWS V14.01,2013-09-03 11:40:00,
2013-09-03 07:45:00,69.6,66.2,29.83,WNW,297,6.0,14.0,89,0.57,,-RA,0.57,0.00,VWS V14.01,2013-09-03 11:45:00,
2013-09-03 07:50:00,68.8,65.4,29.83,SSW,197,3.0,14.0,89,0.60,,-RA,0.60,0.00,VWS V14.01,2013-09-03 11:50:00,
2013-09-03 07:55:00,68.4,65.7,29.83,NNE,14,2.0,14.0,91,0.63,,-RA,0.63,0.00,VWS V14.01,2013-09-03 11:55:00,
2013-09-03 08:00:00,68.8,66.7,29.80,WSW,251,2.0,14.0,93,0.63,,OVC085,0.63,0.00,VWS V14.01,2013-09-03 12:00:00,
2013-09-03 08:05:00,68.4,66.3,29.80,West,259,2.0,4.0,93,0.47,,OVC085,0.63,0.00,VWS V14.01,2013-09-03 12:05:00,
2013-09-03 08:10:00,68.3,66.8,29.80,WSW,250,4.0,7.0,95,0.47,,OVC085,0.63,0.00,VWS V14.01,2013-09-03 12:10:00,
2013-09-03 08:15:00,68.1,66.3,29.79,WSW,248,0.0,7.0,94,0.47,,OVC085,0.63,5.00,VWS V14.01,2013-09-03 12:15:00,
2013-09-03 08:20:00,67.9,66.1,29.79,WSW,248,0.0,7.0,94,0.47,,OVC085,0.63,9.00,VWS V14.01,2013-09-03 12:20:00,
2013-09-03 08:25:00,67.8,66.0,29.79,WSW,248,0.0,7.0,94,0.47,,OVC085,0.63,14.00,VWS V14.01,2013-09-03 12:25:00,
2013-09-03 08:30:00,67.9,66.4,29.78,WSW,248,0.0,7.0,95,0.47,,OVC085,0.63,28.00,VWS V14.01,2013-09-03 12:30:00,
2013-09-03 08:35:00,67.9,66.4,29.78,WSW,248,0.0,0.0,95,0.11,,OVC085,0.63,51.00,VWS V14.01,2013-09-03 12:35:00,
2013-09-03 08:40:00,67.9,66.4,29.78,WSW,248,0.0,0.0,95,0.11,,OVC085,0.63,54.00,VWS V14.01,2013-09-03 12:40:00,
2013-09-03 08:45:00,67.9,66.4,29.78,WSW,248,0.0,0.0,95,0.11,,OVC085,0.63,56.00,VWS V14.01,2013-09-03 12:45:00,
2013-09-03 08:50:00,68.6,67.4,29.78,WSW,247,0.0,7.0,96,0.11,,OVC085,0.63,60.00,VWS V14.01,2013-09-03 12:50:00,
2013-09-03 08:55:00,68.4,66.9,29.78,West,274,4.0,7.0,95,0.11,,OVC085,0.63,70.00,VWS V14.01,2013-09-03 12:55:00,
2013-09-03 09:00:00,68.4,66.9,29.79,West,275,0.0,7.0,95,0.11,,OVC085,0.63,84.00,VWS V14.01,2013-09-03 13:00:00,
2013-09-03 09:05:00,68.4,66.3,29.79,West,267,4.0,4.0,93,0.00,,-RA,0.63,98.00,VWS V14.01,2013-09-03 13:05:00,
2013-09-03 09:10:00,68.6,66.5,29.79,West,262,2.0,7.0,93,0.00,,-RA,0.63,118.00,VWS V14.01,2013-09-03 13:10:00,
2013-09-03 09:15:00,68.8,66.7,29.79,West,267,0.0,7.0,93,0.00,,-RA,0.63,120.00,VWS V14.01,2013-09-03 13:15:00,
2013-09-03 09:20:00,68.9,66.8,29.79,West,267,0.0,7.0,93,0.01,,-RA,0.64,128.00,VWS V14.01,2013-09-03 13:20:00,
2013-09-03 09:25:00,68.8,66.7,29.79,West,279,6.0,7.0,93,0.01,,-RA,0.64,137.00,VWS V14.01,2013-09-03 13:25:00,
2013-09-03 09:30:00,68.8,66.7,29.79,WSW,254,0.0,7.0,93,0.01,,-RA,0.64,114.00,VWS V14.01,2013-09-03 13:30:00,
2013-09-03 09:35:00,69.1,67.6,29.79,WSW,254,0.0,0.0,95,0.01,,-RA,0.64,93.00,VWS V14.01,2013-09-03 13:35:00,
2013-09-03 09:40:00,68.9,66.8,29.79,West,263,1.0,5.0,93,0.01,,-RA,0.64,355.00,VWS V14.01,2013-09-03 13:40:00,
2013-09-03 09:45:00,69.3,67.5,29.78,West,265,0.0,5.0,94,0.01,,-RA,0.64,422.00,VWS V14.01,2013-09-03 13:45:00,
2013-09-03 09:50:00,69.6,67.2,29.78,West,277,1.0,7.0,92,0.01,,-RA,0.64,469.00,VWS V14.01,2013-09-03 13:50:00,
2013-09-03 09:55:00,69.9,66.5,29.78,West,259,1.0,7.0,89,0.01,,-RA,0.64,503.00,VWS V14.01,2013-09-03 13:55:00,
2013-09-03 10:00:00,70.4,66.7,29.78,WNW,288,0.0,7.0,88,0.01,,-RA,0.64,510.00,VWS V14.01,2013-09-03 14:00:00,
2013-09-03 10:05:00,71.3,68.2,29.78,West,264,0.0,2.0,90,0.01,,CLR,0.64,538.00,VWS V14.01,2013-09-03 14:05:00,
2013-09-03 10:10:00,72.1,67.3,29.78,West,264,0.0,2.0,85,0.01,,CLR,0.64,554.00,VWS V14.01,2013-09-03 14:10:00,
2013-09-03 10:15:00,72.8,68.4,29.78,West,263,0.0,2.0,86,0.01,,CLR,0.64,557.00,VWS V14.01,2013-09-03 14:15:00,
2013-09-03 10:20:00,74.0,68.9,29.78,South,176,0.0,3.0,84,0.01,,CLR,0.64,571.00,VWS V14.01,2013-09-03 14:20:00,
2013-09-03 10:25:00,74.4,68.6,29.78,South,184,0.0,3.0,82,0.01,,CLR,0.64,603.00,VWS V14.01,2013-09-03 14:25:00,
2013-09-03 10:30:00,74.6,68.4,29.78,SSW,193,0.0,3.0,81,0.01,,CLR,0.64,606.00,VWS V14.01,2013-09-03 14:30:00,
2013-09-03 10:35:00,74.4,67.8,29.78,West,260,2.0,4.0,80,0.00,,CLR,0.64,527.00,VWS V14.01,2013-09-03 14:35:00,
2013-09-03 10:40:00,74.6,68.4,29.78,SW,234,0.0,4.0,81,0.00,,CLR,0.64,571.00,VWS V14.01,2013-09-03 14:40:00,
2013-09-03 10:45:00,75.4,68.8,29.78,SSW,198,0.0,4.0,80,0.00,,CLR,0.64,650.00,VWS V14.01,2013-09-03 14:45:00,
2013-09-03 10:50:00,76.1,69.1,29.78,South,191,0.0,4.0,79,0.00,,CLR,0.64,664.00,VWS V14.01,2013-09-03 14:50:00,
2013-09-03 10:55:00,76.3,68.9,29.78,West,270,0.0,5.0,78,0.00,,CLR,0.64,673.00,VWS V14.01,2013-09-03 14:55:00,
2013-09-03 11:00:00,76.3,68.6,29.78,West,277,5.0,11.0,77,0.00,,CLR,0.64,687.00,VWS V14.01,2013-09-03 15:00:00,
2013-09-03 11:05:00,76.5,68.8,29.78,WNW,290,2.0,7.0,77,0.00,,CLR,0.64,696.00,VWS V14.01,2013-09-03 15:05:00,
2013-09-03 11:10:00,76.8,68.7,29.78,SW,232,0.0,9.0,76,0.00,,CLR,0.64,708.00,VWS V14.01,2013-09-03 15:10:00,
2013-09-03 11:15:00,77.2,69.1,29.78,West,266,2.0,9.0,76,0.00,,CLR,0.64,717.00,VWS V14.01,2013-09-03 15:15:00,
2013-09-03 11:20:00,77.6,69.1,29.78,West,279,6.0,9.0,75,0.00,,CLR,0.64,733.00,VWS V14.01,2013-09-03 15:20:00,
2013-09-03 11:25:00,77.9,68.9,29.78,West,265,0.0,9.0,74,0.00,,CLR,0.64,749.00,VWS V14.01,2013-09-03 15:25:00,
2013-09-03 11:30:00,78.5,69.9,29.79,WSW,256,0.0,9.0,75,0.00,,CLR,0.64,752.00,VWS V14.01,2013-09-03 15:30:00,
2013-09-03 11:35:00,79.2,69.4,29.79,West,271,0.0,3.0,72,0.00,,CLR,0.64,761.00,VWS V14.01,2013-09-03 15:35:00,
2013-09-03 11:40:00,79.4,70.4,29.79,West,269,0.0,4.0,74,0.00,,CLR,0.64,766.00,VWS V14.01,2013-09-03 15:40:00,
2013-09-03 11:45:00,79.6,69.8,29.78,West,272,1.0,6.0,72,0.00,,CLR,0.64,733.00,VWS V14.01,2013-09-03 15:45:00,
2013-09-03 11:50:00,79.8,70.0,29.78,WSW,258,1.0,7.0,72,0.00,,CLR,0.64,770.00,VWS V14.01,2013-09-03 15:50:00,
2013-09-03 11:55:00,79.9,70.1,29.78,NW,309,2.0,7.0,72,0.00,,CLR,0.64,773.00,VWS V14.01,2013-09-03 15:55:00,
2013-09-03 12:00:00,79.9,69.7,29.78,West,271,3.0,10.0,71,0.00,,CLR,0.64,784.00,VWS V14.01,2013-09-03 16:00:00,
2013-09-03 12:05:00,80.1,69.4,29.78,West,281,0.0,7.0,70,0.00,,CLR,0.64,789.00,VWS V14.01,2013-09-03 16:05:00,
2013-09-03 12:10:00,80.3,69.6,29.78,West,274,3.0,7.0,70,0.00,,CLR,0.64,796.00,VWS V14.01,2013-09-03 16:10:00,
2013-09-03 12:15:00,80.7,70.0,29.78,SE,144,0.0,7.0,70,0.00,,CLR,0.64,805.00,VWS V14.01,2013-09-03 16:15:00,
2013-09-03 12:20:00,81.1,69.6,29.78,West,277,5.0,7.0,68,0.00,,CLR,0.64,812.00,VWS V14.01,2013-09-03 16:20:00,
2013-09-03 12:25:00,81.1,70.0,29.78,WSW,242,0.0,7.0,69,0.00,,CLR,0.64,821.00,VWS V14.01,2013-09-03 16:25:00,
2013-09-03 12:30:00,81.4,70.3,29.78,West,275,3.0,7.0,69,0.00,,CLR,0.64,826.00,VWS V14.01,2013-09-03 16:30:00,
2013-09-03 12:35:00,81.6,70.4,29.78,West,281,0.0,6.0,69,0.00,,CLR,0.64,831.00,VWS V14.01,2013-09-03 16:35:00,
2013-09-03 12:40:00,81.8,70.2,29.78,West,269,0.0,7.0,68,0.00,,CLR,0.64,835.00,VWS V14.01,2013-09-03 16:40:00,
2013-09-03 12:45:00,82.2,71.4,29.78,SSE,159,1.0,7.0,70,0.00,,CLR,0.64,842.00,VWS V14.01,2013-09-03 16:45:00,
2013-09-03 12:50:00,82.6,72.2,29.77,West,262,0.0,7.0,71,0.00,,CLR,0.64,846.00,VWS V14.01,2013-09-03 16:50:00,
2013-09-03 12:55:00,82.6,71.0,29.77,WNW,285,1.0,7.0,68,0.00,,CLR,0.64,847.00,VWS V14.01,2013-09-03 16:55:00,
2013-09-03 13:00:00,82.6,71.0,29.77,NW,306,0.0,7.0,68,0.00,,CLR,0.64,849.00,VWS V14.01,2013-09-03 17:00:00,
2013-09-03 13:05:00,83.2,71.6,29.77,WSW,242,0.0,1.0,68,0.00,,CLR,0.64,854.00,VWS V14.01,2013-09-03 17:05:00,
2013-09-03 13:10:00,83.8,71.7,29.77,SSW,198,2.0,4.0,67,0.00,,CLR,0.64,856.00,VWS V14.01,2013-09-03 17:10:00,
2013-09-03 13:15:00,83.8,72.1,29.77,SE,130,2.0,6.0,68,0.00,,CLR,0.64,860.00,VWS V14.01,2013-09-03 17:15:00,
2013-09-03 13:20:00,84.5,71.4,29.77,SE,130,0.0,6.0,65,0.00,,CLR,0.64,861.00,VWS V14.01,2013-09-03 17:20:00,
2013-09-03 13:25:00,84.5,71.9,29.77,SE,128,1.0,6.0,66,0.00,,CLR,0.64,861.00,VWS V14.01,2013-09-03 17:25:00,
2013-09-03 13:30:00,84.3,71.7,29.77,ESE,113,4.0,6.0,66,0.00,,CLR,0.64,863.00,VWS V14.01,2013-09-03 17:30:00,
2013-09-03 13:35:00,84.0,72.7,29.77,East,94,5.0,6.0,69,0.00,,CLR,0.64,877.00,VWS V14.01,2013-09-03 17:35:00,
2013-09-03 13:40:00,83.6,72.4,29.77,ESE,106,6.0,7.0,69,0.00,,CLR,0.64,875.00,VWS V14.01,2013-09-03 17:40:00,
2013-09-03 13:45:00,83.8,73.0,29.77,ESE,115,5.0,7.0,70,0.00,,CLR,0.64,875.00,VWS V14.01,2013-09-03 17:45:00,
2013-09-03 13:50:00,83.8,73.4,29.76,ESE,115,3.0,7.0,71,0.00,,CLR,0.64,889.00,VWS V14.01,2013-09-03 17:50:00,
2013-09-03 13:55:00,84.3,73.5,29.76,SE,128,4.0,7.0,70,0.00,,CLR,0.64,902.00,VWS V14.01,2013-09-03 17:55:00,
2013-09-03 13:59:00,84.9,72.7,29.76,SE,134,6.0,7.0,67,0.00,,CLR,0.64,951.00,VWS V14.01,2013-09-03 17:59:00,
2013-09-03 14:00:00,82.8,71.2,29.77,NW,311,0.0,7.0,68,0.00,,CLR,0.64,849.00,VWS V14.01,2013-09-03 18:00:00,
2013-09-03 14:04:00,85.3,73.1,29.76,SE,130,4.0,7.0,67,0.00,,CLR,0.64,919.00,VWS V14.01,2013-09-03 18:04:00,
2013-09-03 14:09:00,85.1,72.9,29.76,SE,135,5.0,8.0,67,0.00,,CLR,0.64,911.00,VWS V14.01,2013-09-03 18:09:00,
2013-09-03 14:14:00,85.1,72.9,29.76,ESE,123,4.0,8.0,67,0.00,,CLR,0.64,914.00,VWS V14.01,2013-09-03 18:14:00,
2013-09-03 14:19:00,85.1,73.8,29.76,ESE,116,4.0,8.0,69,0.00,,CLR,0.64,127.00,VWS V14.01,2013-09-03 18:19:00,
2013-09-03 14:24:00,84.7,72.5,29.76,SE,126,3.0,8.0,67,0.00,,CLR,0.64,116.00,VWS V14.01,2013-09-03 18:24:00,
2013-09-03 14:29:00,84.7,73.4,29.76,SE,140,0.0,8.0,69,0.00,,CLR,0.64,121.00,VWS V14.01,2013-09-03 18:29:00,
2013-09-03 14:30:00,84.1,72.8,29.77,ESE,114,3.0,6.0,69,0.00,,CLR,0.64,867.00,VWS V14.01,2013-09-03 18:30:00,
2013-09-03 14:34:00,84.7,72.5,29.75,SE,130,0.0,3.0,67,0.00,,CLR,0.64,907.00,VWS V14.01,2013-09-03 18:34:00,
2013-09-03 14:39:00,85.1,72.5,29.75,SE,137,1.0,3.0,66,0.00,,CLR,0.64,935.00,VWS V14.01,2013-09-03 18:39:00,
2013-09-03 14:44:00,85.9,73.2,29.75,SE,131,4.0,5.0,66,0.00,,CLR,0.64,868.00,VWS V14.01,2013-09-03 18:44:00,
2013-09-03 14:49:00,86.3,73.6,29.75,SE,139,4.0,7.0,66,0.00,,CLR,0.64,846.00,VWS V14.01,2013-09-03 18:49:00,
2013-09-03 14:54:00,86.3,72.7,29.75,SE,143,3.0,7.0,64,0.00,,CLR,0.64,840.00,VWS V14.01,2013-09-03 18:54:00,
2013-09-03 14:59:00,86.3,73.2,29.75,SE,136,5.0,7.0,65,0.00,,CLR,0.64,819.00,VWS V14.01,2013-09-03 18:59:00,
2013-09-03 15:00:00,85.1,72.9,29.76,SE,136,4.0,7.0,67,0.00,,CLR,0.64,954.00,VWS V14.01,2013-09-03 19:00:00,
2013-09-03 15:04:00,86.1,73.0,29.74,SE,124,3.0,6.0,65,0.00,,BKN075,0.64,810.00,VWS V14.01,2013-09-03 19:04:00,
2013-09-03 15:09:00,85.5,73.3,29.74,ESE,103,4.0,7.0,67,0.00,,BKN075,0.64,802.00,VWS V14.01,2013-09-03 19:09:00,
2013-09-03 15:14:00,85.7,73.5,29.74,SE,143,3.0,7.0,67,0.00,,BKN075,0.64,791.00,VWS V14.01,2013-09-03 19:14:00,
2013-09-03 15:19:00,85.7,73.0,29.74,ESE,120,1.0,7.0,66,0.00,,BKN075,0.64,775.00,VWS V14.01,2013-09-03 19:19:00,
2013-09-03 15:24:00,85.7,72.6,29.74,SE,130,3.0,7.0,65,0.00,,BKN075,0.64,766.00,VWS V14.01,2013-09-03 19:24:00,
2013-09-03 15:29:00,86.3,70.3,29.74,SE,138,0.0,7.0,59,0.00,,BKN075,0.64,763.00,VWS V14.01,2013-09-03 19:29:00,
2013-09-03 15:30:00,84.7,73.0,29.75,SE,139,2.0,8.0,68,0.00,,CLR,0.64,132.00,VWS V14.01,2013-09-03 19:30:00,
2013-09-03 15:34:00,87.2,72.1,29.73,SE,142,1.0,4.0,61,0.00,,BKN075,0.64,754.00,VWS V14.01,2013-09-03 19:34:00,
2013-09-03 15:39:00,87.6,72.5,29.73,SE,128,4.0,6.0,61,0.00,,BKN075,0.64,744.00,VWS V14.01,2013-09-03 19:39:00,
2013-09-03 15:44:00,87.6,72.0,29.73,SE,138,2.0,6.0,60,0.00,,BKN075,0.64,731.00,VWS V14.01,2013-09-03 19:44:00,
2013-09-03 15:49:00,87.4,72.3,29.73,ESE,115,3.0,6.0,61,0.00,,BKN075,0.64,726.00,VWS V14.01,2013-09-03 19:49:00,
2013-09-03 15:54:00,87.4,72.3,29.73,SE,138,0.0,6.0,61,0.00,,BKN075,0.64,733.00,VWS V14.01,2013-09-03 19:54:00,
2013-09-03 15:59:00,87.6,72.5,29.73,SE,141,2.0,6.0,61,0.00,,BKN075,0.64,288.00,VWS V14.01,2013-09-03 19:59:00,
2013-09-03 16:00:00,86.1,73.0,29.74,SE,136,3.0,7.0,65,0.00,,CLR,0.64,814.00,VWS V14.01,2013-09-03 20:00:00,
2013-09-03 16:04:00,87.2,73.1,29.72,ESE,119,3.0,7.0,63,0.00,,BKN075,0.64,686.00,VWS V14.01,2013-09-03 20:04:00,
2013-09-03 16:09:00,87.0,72.4,29.72,ESE,119,4.0,7.0,62,0.00,,BKN075,0.64,673.00,VWS V14.01,2013-09-03 20:09:00,
2013-09-03 16:14:00,87.0,72.9,29.72,SE,142,5.0,7.0,63,0.00,,BKN075,0.64,645.00,VWS V14.01,2013-09-03 20:14:00,
2013-09-03 16:19:00,87.4,71.8,29.72,SE,136,2.0,7.0,60,0.00,,BKN075,0.64,631.00,VWS V14.01,2013-09-03 20:19:00,
2013-09-03 16:24:00,87.2,73.1,29.72,ESE,121,2.0,7.0,63,0.00,,BKN075,0.64,629.00,VWS V14.01,2013-09-03 20:24:00,
2013-09-03 16:29:00,87.2,74.0,29.72,SE,128,2.0,7.0,65,0.00,,BKN075,0.64,615.00,VWS V14.01,2013-09-03 20:29:00,
2013-09-03 16:30:00,86.5,70.5,29.73,SE,138,0.0,7.0,59,0.00,,CLR,0.64,763.00,VWS V14.01,2013-09-03 20:30:00,
2013-09-03 16:34:00,87.2,72.6,29.71,SE,140,0.0,5.0,62,0.00,,BKN075,0.64,603.00,VWS V14.01,2013-09-03 20:34:00,
2013-09-03 16:39:00,87.6,71.5,29.71,SE,135,0.0,5.0,59,0.00,,BKN075,0.64,582.00,VWS V14.01,2013-09-03 20:39:00,
2013-09-03 16:44:00,88.0,72.4,29.71,SE,140,1.0,5.0,60,0.00,,BKN075,0.64,580.00,VWS V14.01,2013-09-03 20:44:00,
2013-09-03 16:49:00,88.2,71.6,29.71,SE,140,0.0,5.0,58,0.00,,BKN075,0.64,561.00,VWS V14.01,2013-09-03 20:49:00,
2013-09-03 16:54:00,88.4,70.7,29.71,SE,135,3.0,5.0,56,0.00,,BKN075,0.64,547.00,VWS V14.01,2013-09-03 20:54:00,
2013-09-03 16:59:00,88.2,71.6,29.71,SE,136,0.0,5.0,58,0.00,,BKN075,0.64,536.00,VWS V14.01,2013-09-03 20:59:00,
2013-09-03 17:00:00,87.6,73.0,29.72,ESE,117,5.0,6.0,62,0.00,,CLR,0.64,288.00,VWS V14.01,2013-09-03 21:00:00,
2013-09-03 17:04:00,88.6,71.4,29.71,SE,144,3.0,3.0,57,0.00,,BKN075,0.64,513.00,VWS V14.01,2013-09-03 21:04:00,
2013-09-03 17:09:00,88.6,72.4,29.71,SE,142,3.0,4.0,59,0.00,,BKN075,0.64,499.00,VWS V14.01,2013-09-03 21:09:00,
2013-09-03 17:14:00,88.4,72.3,29.71,SE,142,2.0,4.0,59,0.00,,BKN075,0.64,485.00,VWS V14.01,2013-09-03 21:14:00,
2013-09-03 17:19:00,88.2,72.1,29.71,SE,142,3.0,6.0,59,0.00,,BKN075,0.64,462.00,VWS V14.01,2013-09-03 21:19:00,
2013-09-03 17:24:00,88.2,72.1,29.71,SE,144,0.0,6.0,59,0.00,,BKN075,0.64,448.00,VWS V14.01,2013-09-03 21:24:00,
2013-09-03 17:29:00,88.2,73.1,29.71,SE,144,3.0,6.0,61,0.00,,BKN075,0.64,434.00,VWS V14.01,2013-09-03 21:29:00,
2013-09-03 17:30:00,87.2,72.6,29.71,SE,131,5.0,7.0,62,0.00,,CLR,0.64,617.00,VWS V14.01,2013-09-03 21:30:00,
2013-09-03 17:34:00,88.2,72.1,29.72,SE,140,1.0,4.0,59,0.00,,BKN075,0.64,424.00,VWS V14.01,2013-09-03 21:34:00,
2013-09-03 17:39:00,88.0,70.9,29.72,SE,134,2.0,5.0,57,0.00,,BKN075,0.64,406.00,VWS V14.01,2013-09-03 21:39:00,
2013-09-03 17:44:00,88.2,70.5,29.72,SE,146,3.0,5.0,56,0.00,,BKN075,0.64,399.00,VWS V14.01,2013-09-03 21:44:00,
2013-09-03 17:49:00,88.4,71.2,29.72,SE,146,0.0,5.0,57,0.00,,BKN075,0.64,394.00,VWS V14.01,2013-09-03 21:49:00,
2013-09-03 17:54:00,88.8,69.5,29.72,SSE,155,0.0,5.0,53,0.00,,BKN075,0.64,376.00,VWS V14.01,2013-09-03 21:54:00,
2013-09-03 17:59:00,89.7,70.3,29.72,SSE,159,0.0,5.0,53,0.00,,BKN075,0.64,373.00,VWS V14.01,2013-09-03 21:59:00,
2013-09-03 18:00:00,88.4,71.8,29.71,SE,138,0.0,5.0,58,0.00,,CLR,0.64,526.00,VWS V14.01,2013-09-03 22:00:00,
2013-09-03 18:04:00,89.9,69.9,29.72,SSE,153,0.0,1.0,52,0.00,,BKN075,0.64,359.00,VWS V14.01,2013-09-03 22:04:00,
2013-09-03 18:09:00,90.1,71.2,29.72,SSE,157,0.0,1.0,54,0.00,,BKN075,0.64,336.00,VWS V14.01,2013-09-03 22:09:00,
2013-09-03 18:14:00,90.3,70.9,29.72,SSE,153,0.0,1.0,53,0.00,,BKN075,0.64,345.00,VWS V14.01,2013-09-03 22:14:00,
2013-09-03 18:19:00,90.3,73.0,29.72,SSE,148,2.0,5.0,57,0.00,,BKN075,0.64,334.00,VWS V14.01,2013-09-03 22:19:00,
2013-09-03 18:24:00,88.8,73.1,29.72,SE,136,2.0,6.0,60,0.00,,BKN075,0.64,290.00,VWS V14.01,2013-09-03 22:24:00,
2013-09-03 18:29:00,88.0,73.4,29.72,SE,136,3.0,6.0,62,0.00,,BKN075,0.64,288.00,VWS V14.01,2013-09-03 22:29:00,
2013-09-03 18:30:00,88.2,72.1,29.72,SE,141,1.0,6.0,59,0.00,,CLR,0.64,432.00,VWS V14.01,2013-09-03 22:30:00,
2013-09-03 18:34:00,87.4,73.7,29.72,ESE,121,2.0,7.0,64,0.00,,BKN075,0.64,269.00,VWS V14.01,2013-09-03 22:34:00,
2013-09-03 18:39:00,86.5,72.4,29.72,ESE,123,4.0,7.0,63,0.00,,BKN075,0.64,248.00,VWS V14.01,2013-09-03 22:39:00,
2013-09-03 18:44:00,86.3,73.2,29.72,ESE,119,2.0,7.0,65,0.00,,BKN075,0.64,207.00,VWS V14.01,2013-09-03 22:44:00,
2013-09-03 18:49:00,85.9,74.6,29.73,ENE,76,5.0,10.0,69,0.00,,BKN075,0.64,192.00,VWS V14.01,2013-09-03 22:49:00,
2013-09-03 18:54:00,85.3,73.1,29.73,East,88,7.0,11.0,67,0.00,,BKN075,0.64,179.00,VWS V14.01,2013-09-03 22:54:00,
2013-09-03 18:59:00,84.7,73.4,29.73,East,82,8.0,11.0,69,0.00,,BKN075,0.64,156.00,VWS V14.01,2013-09-03 22:59:00,
2013-09-03 19:00:00,89.7,70.9,29.72,SSE,159,0.0,5.0,54,0.00,,CLR,0.64,374.00,VWS V14.01,2013-09-03 23:00:00,
2013-09-03 19:04:00,84.1,73.3,29.73,ESE,107,9.0,13.0,70,0.00,,,0.64,142.00,VWS V14.01,2013-09-03 23:04:00,
2013-09-03 19:09:00,83.8,72.6,29.73,ESE,123,7.0,13.0,69,0.00,,,0.64,125.00,VWS V14.01,2013-09-03 23:09:00,
2013-09-03 19:14:00,83.6,72.4,29.73,SE,132,3.0,13.0,69,0.00,,,0.64,109.00,VWS V14.01,2013-09-03 23:14:00,
2013-09-03 19:19:00,83.4,71.7,29.73,ESE,109,6.0,13.0,68,0.00,,,0.64,93.00,VWS V14.01,2013-09-03 23:19:00,
2013-09-03 19:24:00,83.4,71.3,29.73,SE,126,3.0,13.0,67,0.00,,,0.64,70.00,VWS V14.01,2013-09-03 23:24:00,
2013-09-03 19:29:00,83.2,71.6,29.73,ESE,121,3.0,13.0,68,0.00,,,0.64,62.00,VWS V14.01,2013-09-03 23:29:00,
2013-09-03 19:30:00,87.8,72.7,29.72,SE,129,4.0,6.0,61,0.00,,CLR,0.64,283.00,VWS V14.01,2013-09-03 23:30:00,
2013-09-03 19:34:00,83.2,71.6,29.75,ESE,111,4.0,9.0,68,0.00,,,0.64,32.00,VWS V14.01,2013-09-03 23:34:00,
2013-09-03 19:39:00,83.0,72.6,29.75,ESE,113,4.0,9.0,71,0.00,,,0.64,25.00,VWS V14.01,2013-09-03 23:39:00,
2013-09-03 19:44:00,82.6,71.0,29.75,SE,124,0.0,9.0,68,0.00,,,0.64,19.00,VWS V14.01,2013-09-03 23:44:00,
2013-09-03 19:49:00,82.4,70.8,29.75,SE,126,0.0,9.0,68,0.00,,,0.64,11.00,VWS V14.01,2013-09-03 23:49:00,
2013-09-03 19:54:00,82.6,70.1,29.75,SE,142,1.0,9.0,66,0.00,,,0.64,0.00,VWS V14.01,2013-09-03 23:54:00,
2013-09-03 19:59:00,82.6,71.4,29.75,SE,141,0.0,9.0,69,0.00,,,0.64,0.00,VWS V14.01,2013-09-03 23:59:00,
2013-09-03 20:00:00,84.3,72.6,29.73,East,87,9.0,11.0,68,0.00,,CLR,0.64,146.00,VWS V14.01,2013-09-04 00:00:00,
2013-09-03 20:04:00,82.4,70.8,29.76,SE,138,0.0,5.0,68,0.00,,CLR,0.64,0.00,VWS V14.01,2013-09-04 00:04:00,
2013-09-03 20:09:00,82.4,72.5,29.76,SSE,163,0.0,5.0,72,0.00,,CLR,0.64,0.00,VWS V14.01,2013-09-04 00:09:00,
2013-09-03 20:14:00,82.0,73.7,29.76,WSW,238,0.0,5.0,76,0.00,,CLR,0.64,0.00,VWS V14.01,2013-09-04 00:14:00,
2013-09-03 20:19:00,81.2,72.9,29.76,West,264,0.0,5.0,76,0.00,,CLR,0.64,0.00,VWS V14.01,2013-09-04 00:19:00,
2013-09-03 20:24:00,81.1,73.2,29.76,ENE,74,0.0,5.0,77,0.00,,CLR,0.64,0.00,VWS V14.01,2013-09-04 00:24:00,
2013-09-03 20:29:00,80.9,73.0,29.76,ENE,78,0.0,5.0,77,0.00,,CLR,0.64,0.00,VWS V14.01,2013-09-04 00:29:00,
2013-09-03 20:30:00,83.2,72.0,29.75,ESE,109,2.0,13.0,69,0.00,,CLR,0.64,56.00,VWS V14.01,2013-09-04 00:30:00,
2013-09-03 20:34:00,80.7,72.4,29.78,ENE,76,0.0,0.0,76,0.00,,CLR,0.64,0.00,VWS V14.01,2013-09-04 00:34:00,
2013-09-03 20:39:00,80.5,71.8,29.78,ENE,70,0.0,1.0,75,0.00,,CLR,0.64,0.00,VWS V14.01,2013-09-04 00:39:00,
2013-09-03 20:44:00,80.3,72.1,29.78,ENE,72,0.0,1.0,76,0.00,,CLR,0.64,0.00,VWS V14.01,2013-09-04 00:44:00,
2013-09-03 20:49:00,80.3,72.4,29.78,ENE,72,0.0,1.0,77,0.00,,CLR,0.64,0.00,VWS V14.01,2013-09-04 00:49:00,
2013-09-03 20:54:00,80.5,73.4,29.78,ENE,65,0.0,1.0,79,0.00,,CLR,0.64,0.00,VWS V14.01,2013-09-04 00:54:00,
2013-09-03 20:59:00,80.7,71.7,29.78,ENE,65,0.0,1.0,74,0.00,,CLR,0.64,0.00,VWS V14.01,2013-09-04 00:59:00,
2013-09-03 21:00:00,82.6,70.5,29.76,SE,140,0.0,9.0,67,0.00,,CLR,0.64,0.00,VWS V14.01,2013-09-04 01:00:00,
2013-09-03 21:04:00,81.2,70.1,29.80,ENE,65,0.0,0.0,69,0.00,,SCT100,0.64,0.00,VWS V14.01,2013-09-04 01:04:00,
2013-09-03 21:09:00,81.6,72.9,29.80,ENE,61,0.0,0.0,75,0.00,,SCT100,0.64,0.00,VWS V14.01,2013-09-04 01:09:00,
2013-09-03 21:14:00,81.4,73.9,29.80,NE,51,0.0,0.0,78,0.00,,SCT100,0.64,0.00,VWS V14.01,2013-09-04 01:14:00,
2013-09-03 21:19:00,80.9,74.5,29.79,NNE,32,6.0,7.0,81,0.00,,SCT100,0.64,0.00,VWS V14.01,2013-09-04 01:19:00,
2013-09-03 21:24:00,80.1,72.6,29.79,NNE,33,5.0,8.0,78,0.00,,SCT100,0.64,0.00,VWS V14.01,2013-09-04 01:24:00,
2013-09-03 21:29:00,79.9,72.1,29.79,NNE,31,0.0,9.0,77,0.00,,SCT100,0.64,0.00,VWS V14.01,2013-09-04 01:29:00,
2013-09-03 21:30:00,80.9,72.6,29.78,East,82,0.0,5.0,76,0.00,,CLR,0.64,0.00,VWS V14.01,2013-09-04 01:30:00,
2013-09-03 21:34:00,80.1,72.6,29.80,NE,35,4.0,4.0,78,0.00,,SCT100,0.64,0.00,VWS V14.01,2013-09-04 01:34:00,
2013-09-03 21:39:00,79.9,71.7,29.80,NE,37,3.0,5.0,76,0.00,,SCT100,0.64,0.00,VWS V14.01,2013-09-04 01:39:00,
2013-09-03 21:44:00,79.9,72.4,29.80,NE,34,6.0,7.0,78,0.00,,SCT100,0.64,0.00,VWS V14.01,2013-09-04 01:44:00,
2013-09-03 21:49:00,79.8,73.8,29.81,NNE,28,0.0,9.0,82,0.00,,SCT100,0.64,0.00,VWS V14.01,2013-09-04 01:49:00,
2013-09-03 21:54:00,79.4,73.1,29.81,NNE,29,5.0,9.0,81,0.00,,SCT100,0.64,0.00,VWS V14.01,2013-09-04 01:54:00,
2013-09-03 21:59:00,79.0,73.0,29.81,WSW,257,0.0,9.0,82,0.00,,SCT100,0.64,0.00,VWS V14.01,2013-09-04 01:59:00,
2013-09-03 22:00:00,80.9,71.0,29.80,ENE,61,0.0,1.0,72,0.00,,CLR,0.64,0.00,VWS V14.01,2013-09-04 02:00:00,
2013-09-03 22:04:00,78.6,72.3,29.81,WSW,257,0.0,4.0,81,0.00,,CLR,0.64,0.00,VWS V14.01,2013-09-04 02:04:00,
2013-09-03 22:09:00,78.3,72.0,29.81,West,261,1.0,4.0,81,0.00,,CLR,0.64,0.00,VWS V14.01,2013-09-04 02:09:00,
2013-09-03 22:14:00,77.7,72.5,29.81,West,265,0.0,5.0,84,0.02,,CLR,0.66,0.00,VWS V14.01,2013-09-04 02:14:00,
2013-09-03 22:19:00,77.2,72.7,29.82,West,264,0.0,5.0,86,0.04,,CLR,0.68,0.00,VWS V14.01,2013-09-04 02:19:00,
2013-09-03 22:24:00,76.5,73.0,29.82,West,264,0.0,5.0,89,0.07,,CLR,0.71,0.00,VWS V14.01,2013-09-04 02:24:00,
2013-09-03 22:29:00,76.3,73.8,29.82,West,263,0.0,5.0,92,0.09,,CLR,0.73,0.00,VWS V14.01,2013-09-04 02:29:00,
2013-09-03 22:30:00,80.1,73.0,29.80,NNE,30,4.0,9.0,79,0.00,,CLR,0.64,0.00,VWS V14.01,2013-09-04 02:30:00,
2013-09-03 22:34:00,77.2,68.7,29.83,NE,44,9.0,15.0,75,0.11,,CLR,0.75,0.00,VWS V14.01,2013-09-04 02:34:00,
2013-09-03 22:39:00,79.4,70.4,29.83,NE,53,9.0,15.0,74,0.11,,CLR,0.75,0.00,VWS V14.01,2013-09-04 02:39:00,
2013-09-03 22:44:00,80.3,70.1,29.83,ENE,59,6.0,15.0,71,0.11,,CLR,0.75,0.00,VWS V14.01,2013-09-04 02:44:00,
2013-09-03 22:49:00,80.7,70.4,29.83,ENE,60,3.0,15.0,71,0.11,,CLR,0.75,0.00,VWS V14.01,2013-09-04 02:49:00,
2013-09-03 22:54:00,80.5,72.6,29.83,ENE,65,0.0,15.0,77,0.11,,CLR,0.75,0.00,VWS V14.01,2013-09-04 02:54:00,
2013-09-03 22:59:00,78.8,72.8,29.83,West,277,0.0,15.0,82,0.11,,CLR,0.75,0.00,VWS V14.01,2013-09-04 02:59:00,
2013-09-03 23:00:00,79.0,72.3,29.81,WSW,257,3.0,9.0,80,0.00,,CLR,0.64,0.00,VWS V14.01,2013-09-04 03:00:00,
2013-09-03 23:04:00,76.8,72.6,29.83,West,277,0.0,3.0,87,0.11,,OVC095,0.00,0.00,VWS V14.01,2013-09-04 03:04:00,
2013-09-03 23:09:00,76.8,73.7,29.83,South,178,0.0,4.0,90,0.11,,OVC095,0.00,0.00,VWS V14.01,2013-09-04 03:09:00,
2013-09-03 23:14:00,77.2,73.7,29.83,South,178,2.0,4.0,89,0.11,,OVC095,0.00,0.00,VWS V14.01,2013-09-04 03:14:00,
2013-09-03 23:19:00,77.9,74.4,29.83,East,89,4.0,6.0,89,0.11,,OVC095,0.00,0.00,VWS V14.01,2013-09-04 03:19:00,
2013-09-03 23:24:00,78.3,74.1,29.83,ENE,71,4.0,6.0,87,0.12,,OVC095,0.01,0.00,VWS V14.01,2013-09-04 03:24:00,
2013-09-03 23:29:00,78.3,74.5,29.83,ENE,70,3.0,6.0,88,0.12,,OVC095,0.01,0.00,VWS V14.01,2013-09-04 03:29:00,
2013-09-03 23:30:00,76.5,74.3,29.83,ENE,72,11.0,11.0,93,0.10,,CLR,0.74,0.00,VWS V14.01,2013-09-04 03:30:00,
2013-09-03 23:34:00,78.1,73.9,29.83,ENE,70,0.0,4.0,87,0.02,,OVC095,0.01,0.00,VWS V14.01,2013-09-04 03:34:00,
2013-09-03 23:39:00,77.4,74.6,29.83,ENE,69,2.0,4.0,91,0.02,,OVC095,0.01,0.00,VWS V14.01,2013-09-04 03:39:00,
2013-09-03 23:44:00,77.4,74.6,29.83,NW,308,0.0,5.0,91,0.02,,OVC095,0.01,0.00,VWS V14.01,2013-09-04 03:44:00,
2013-09-03 23:49:00,77.6,74.8,29.84,NNW,336,0.0,5.0,91,0.02,,OVC095,0.01,0.00,VWS V14.01,2013-09-04 03:49:00,
2013-09-03 23:54:00,77.7,74.9,29.84,NW,319,3.0,6.0,91,0.02,,OVC095,0.01,0.00,VWS V14.01,2013-09-04 03:54:00,
2013-09-03 23:59:00,77.6,74.4,29.84,NNW,332,5.0,6.0,90,0.02,,OVC095,0.01,0.00,VWS V14.01,2013-09-04 03:59:00,